Airfield :
LOGIN :

Register | Disclaimer

   EN    FR    IT 

 










Legend :    VFR   Marginal VFR   IFR   Intensive IFR   Very Intensive IFR
Visi :
Ceiling :
>= 8 km
>= 3000ft
5 to 8 km
1000 to 3000 ft
1500m to 5 km
500 to 1000 ft
800 to 1500m
200 to 500 ft
< 800m
< 200 ft
Symbols :   Thunderstorms  Fog  Heavy snow  Heavy precipitations  Wind > 20 kt
SIGMETs :     Misc.  Thunderstorms  Icing  Turbulence  Mountain Waves  Volcanic Ashes






- Airport Elevation : 247 ft
- IATA code : BLL


EKBI - Billund

CURRENT METAR :
  • 190450Z AUTO 18007KT 9999 FEW007/// OVC022/// 03/03 Q1004

EXPIRED METARs :
  • 190420Z AUTO 18007KT 9999 -DZ FEW007/// BKN011/// 03/03 Q1004
  • 190350Z AUTO 19007KT 9999 BKN005/// BKN060/// 03/03 Q1005 R09/710195
  • 190320Z AUTO 19004KT 9999 -RA OVC006/// 03/03 Q1005 R09/710195
  • 190250Z AUTO 19006KT 8000 SHRA OVC003/// 03/03 Q1005 R09/710195
  • 190220Z AUTO 18006KT 9999 -SHRA BKN004/// OVC029/// 03/03 Q1006 R09/710195

TAF TAF EKBI
Valid from the 19 at 00:00 until the 20 at 00:00 UTC


182309Z 1900/1924 20005KT 9999 FEW020
TEMPO 1900/1906 2500 -SHRA BR BKN004 SCT020TCU
BECMG 1906/1908 2000 -RADZ BR BKN002
TEMPO 1908/1910 3500 BKN005
BECMG 1910/1912 14010KT 0500 FG BKN001
TEMPO 1912/1924 3000 -RADZ BR BKN003
BECMG 1917/1918 22004KT



MET'MAP, your aeronautical weather chart ! - Copyright ORBIFLY December 2007 - Disclaimer

ORBIFLY MET'MAP TEAM :

Programming & Development : Alexandra Zaïnal
Concept & original design : Baudouin d'Aumeries
Assistance for programming : Marc-Olivier Méhu
Technical & hardware support : Manuel Goepfert

Contact : metmap@orbifly.com




SOURCES & CREDITS :

   NOAA